Hunters Creek Village, Texas
Current Conditions -  °F | °C
As of 4:15 PM on Sunday 23 Nov 2014 (Local Time) from KMCJ Reporting Station
Clear Clear  
Wind Chill: 79°   Ceiling: Unl
Heat Index: 79°   Visibility: 10mi
Dew Point: 48°   Wind: 6mph
Humidity: 34%   Direction: 220°SW
Pressure: 29.52"   Gusts: 20mph
Location:  29.7698°N, 95.5164°W
Report Text: KMCJ 232215Z AUTO 22005G17KT 10SM CLR 26/09 A2952 RMK AO1
Loading
Personal Weather Stations






























Interactive Weather Map New forecast layout! Learn more

10-Day Weather Forecast

Advertisements
Track Severe Weather on mobile